Time;durP1;ratioP1;P1;durP2;ratioP2;P2;SDS_P1;SDS_P2;PMS_P1;PMS_P2;Temp;Humidity;BMP_temperature;BMP_pressure;BME280_temperature;BME280_humidity;BME280_pressure;Samples;Min_cycle;Max_cycle;Signal;HPM_P1;HPM_P2
2021/04/15 00:01:47;;;;;;;;;;;20.00;45.40;;;;;;5056963;28;19912;-76
2021/04/15 00:04:13;;;;;;;;;;;20.00;45.40;;;;;;5049200;28;20346;-79
2021/04/15 00:06:39;;;;;;;;;;;20.00;45.30;;;;;;5054083;28;19904;-77
2021/04/15 00:09:10;;;;;;;;;;;20.00;45.30;;;;;;5055229;28;20359;-78
2021/04/15 00:11:36;;;;;;;;;;;19.90;45.70;;;;;;5046412;28;19962;-78
2021/04/15 00:14:02;;;;;;;;;;;19.90;45.30;;;;;;5040335;28;20003;-78
2021/04/15 00:16:29;;;;;;;;;;;19.70;45.70;;;;;;5053761;28;19990;-78
2021/04/15 00:18:56;;;;;;;;;;;19.70;46.00;;;;;;5056218;28;19913;-79
2021/04/15 00:21:22;;;;;;;;;;;19.70;45.70;;;;;;5052044;28;19912;-79
2021/04/15 00:23:48;;;;;;;;;;;19.50;46.50;;;;;;5048846;28;19919;-78
2021/04/15 00:26:15;;;;;;;;;;;19.30;46.00;;;;;;5056652;28;19909;-78
2021/04/15 00:28:42;;;;;;;;;;;19.20;46.60;;;;;;5037030;28;19913;-77
2021/04/15 00:31:08;;;;;;;;;;;19.20;46.70;;;;;;5052880;28;20293;-78
2021/04/15 00:33:34;;;;;;;;;;;19.20;46.60;;;;;;5052425;28;19905;-77
2021/04/15 00:36:01;;;;;;;;;;;19.20;46.90;;;;;;5053556;28;19924;-78
2021/04/15 00:38:27;;;;;;;;;;;19.10;47.00;;;;;;5050244;28;19919;-77
2021/04/15 00:40:54;;;;;;;;;;;19.10;46.80;;;;;;5050769;28;19908;-78
2021/04/15 00:43:22;;;;;;;;;;;19.00;47.20;;;;;;5026323;28;20365;-77
2021/04/15 00:45:49;;;;;;;;;;;19.00;47.00;;;;;;5052942;28;19926;-77
2021/04/15 00:48:18;;;;;;;;;;;18.90;47.30;;;;;;5051071;28;19928;-77
2021/04/15 00:50:49;;;;;;;;;;;18.70;47.30;;;;;;5055261;28;19913;-77
2021/04/15 00:53:20;;;;;;;;;;;18.50;47.60;;;;;;5047995;28;19991;-77
2021/04/15 00:55:47;;;;;;;;;;;18.60;47.70;;;;;;5050622;28;19956;-77
2021/04/15 00:58:13;;;;;;;;;;;18.50;47.30;;;;;;5055857;28;19905;-78
2021/04/15 01:00:40;;;;;;;;;;;18.50;47.30;;;;;;5054394;28;20016;-78
2021/04/15 01:03:06;;;;;;;;;;;18.40;47.40;;;;;;5051803;28;20258;-77
2021/04/15 01:05:34;;;;;;;;;;;18.30;47.30;;;;;;5051454;28;19920;-76
2021/04/15 01:08:01;;;;;;;;;;;18.40;47.50;;;;;;5052003;28;19913;-77
2021/04/15 01:10:28;;;;;;;;;;;18.40;47.30;;;;;;5038250;28;19916;-78
2021/04/15 01:13:04;;;;;;;;;;;18.50;47.30;;;;;;5052933;28;19909;-78
2021/04/15 01:15:30;;;;;;;;;;;18.50;47.10;;;;;;5031048;28;19971;-76
2021/04/15 01:17:58;;;;;;;;;;;18.50;47.50;;;;;;5051034;28;19909;-76
2021/04/15 01:20:39;;;;;;;;;;;18.50;47.00;;;;;;5052884;28;20042;-77
2021/04/15 01:23:05;;;;;;;;;;;18.50;47.00;;;;;;5037511;28;19944;-74
2021/04/15 01:25:50;;;;;;;;;;;18.50;46.80;;;;;;5045705;28;20016;-75
2021/04/15 01:28:22;;;;;;;;;;;18.30;47.00;;;;;;5043838;28;20301;-77
2021/04/15 01:30:57;;;;;;;;;;;18.30;46.90;;;;;;5037497;28;19969;-78
2021/04/15 01:33:30;;;;;;;;;;;18.30;46.90;;;;;;5057389;28;20002;-78
2021/04/15 01:36:07;;;;;;;;;;;18.20;46.80;;;;;;5047564;28;19929;-77
2021/04/15 01:38:36;;;;;;;;;;;18.00;46.80;;;;;;5034127;28;19909;-76
2021/04/15 01:41:12;;;;;;;;;;;18.00;46.70;;;;;;5043117;28;20089;-77
2021/04/15 01:43:45;;;;;;;;;;;17.90;46.90;;;;;;5054434;28;19913;-76
2021/04/15 01:46:11;;;;;;;;;;;17.90;46.40;;;;;;5053431;28;19971;-77
2021/04/15 01:48:40;;;;;;;;;;;17.80;46.50;;;;;;5053760;28;19909;-76
2021/04/15 01:51:12;;;;;;;;;;;17.80;46.30;;;;;;5045758;28;19909;-78
2021/04/15 01:53:43;;;;;;;;;;;17.80;46.00;;;;;;5046327;28;19908;-76
2021/04/15 01:56:17;;;;;;;;;;;17.60;46.30;;;;;;5030777;28;19909;-77
2021/04/15 01:58:47;;;;;;;;;;;17.60;46.20;;;;;;5030394;28;19967;-77
2021/04/15 02:01:16;;;;;;;;;;;17.60;46.30;;;;;;5051342;28;19909;-77
2021/04/15 02:03:43;;;;;;;;;;;17.60;46.40;;;;;;5040647;28;19913;-76
2021/04/15 02:06:14;;;;;;;;;;;17.50;46.40;;;;;;5050189;28;20254;-77
2021/04/15 02:08:41;;;;;;;;;;;17.50;46.40;;;;;;5048624;28;19909;-76
2021/04/15 02:11:10;;;;;;;;;;;17.50;46.40;;;;;;5052879;28;20011;-78
2021/04/15 02:13:41;;;;;;;;;;;17.40;46.50;;;;;;5029042;28;19912;-75
2021/04/15 02:16:08;;;;;;;;;;;17.30;46.90;;;;;;5043873;28;19981;-75
2021/04/15 02:18:43;;;;;;;;;;;17.30;46.70;;;;;;5050400;28;19915;-76
2021/04/15 02:21:15;;;;;;;;;;;17.30;46.60;;;;;;5049418;28;19909;-76
2021/04/15 02:24:04;;;;;;;;;;;17.20;46.80;;;;;;5053781;28;19920;-76
2021/04/15 02:26:32;;;;;;;;;;;17.10;46.70;;;;;;5042038;28;19926;-76
2021/04/15 02:28:58;;;;;;;;;;;17.00;46.80;;;;;;5050598;28;19956;-75
2021/04/15 02:31:27;;;;;;;;;;;17.10;46.70;;;;;;5050858;28;19952;-77
2021/04/15 02:33:57;;;;;;;;;;;17.00;46.80;;;;;;5031266;28;19919;-76
2021/04/15 02:36:25;;;;;;;;;;;17.00;46.90;;;;;;5052967;28;19912;-77
2021/04/15 02:38:53;;;;;;;;;;;16.90;47.00;;;;;;5055497;28;19917;-76
2021/04/15 02:41:21;;;;;;;;;;;16.90;47.10;;;;;;5047010;28;19912;-75
2021/04/15 02:44:10;;;;;;;;;;;16.90;47.20;;;;;;5053960;28;20211;-74
2021/04/15 02:46:38;;;;;;;;;;;16.90;47.10;;;;;;5051361;28;19980;-74
2021/04/15 02:49:05;;;;;;;;;;;16.80;47.20;;;;;;5052233;28;19909;-75
2021/04/15 02:51:37;;;;;;;;;;;16.70;47.40;;;;;;5049932;28;19918;-76
2021/04/15 02:54:17;;;;;;;;;;;16.70;47.40;;;;;;5034694;28;19909;-76
2021/04/15 02:56:47;;;;;;;;;;;16.60;47.50;;;;;;5057424;28;20326;-76
2021/04/15 02:59:16;;;;;;;;;;;16.60;47.40;;;;;;5073672;28;19963;-76
2021/04/15 03:01:48;;;;;;;;;;;16.60;47.60;;;;;;5055909;28;20098;-76
2021/04/15 03:04:20;;;;;;;;;;;16.60;47.20;;;;;;5056595;28;19908;-76
2021/04/15 03:06:46;;;;;;;;;;;16.40;47.50;;;;;;5044436;28;19912;-76
2021/04/15 03:09:13;;;;;;;;;;;16.50;46.50;;;;;;5048876;28;19904;-77
2021/04/15 03:11:41;;;;;;;;;;;16.30;47.00;;;;;;5056527;28;19938;-75
2021/04/15 03:14:08;;;;;;;;;;;16.20;47.40;;;;;;5052767;28;19920;-76
2021/04/15 03:16:42;;;;;;;;;;;16.30;46.80;;;;;;5052578;28;19908;-76
2021/04/15 03:19:20;;;;;;;;;;;16.20;47.10;;;;;;5052894;28;19999;-76
2021/04/15 03:21:56;;;;;;;;;;;16.00;47.30;;;;;;5052569;28;19920;-75
2021/04/15 03:24:27;;;;;;;;;;;16.10;47.50;;;;;;5044698;28;19964;-76
2021/04/15 03:27:05;;;;;;;;;;;16.10;47.00;;;;;;5056308;28;19916;-76
2021/04/15 03:29:38;;;;;;;;;;;16.20;47.10;;;;;;5056709;28;19920;-76
2021/04/15 03:32:22;;;;;;;;;;;15.80;47.50;;;;;;5050669;28;19908;-75
2021/04/15 03:35:05;;;;;;;;;;;15.70;48.00;;;;;;5042032;28;19908;-76
2021/04/15 03:37:44;;;;;;;;;;;15.80;48.10;;;;;;5047838;28;19916;-76
2021/04/15 03:40:14;;;;;;;;;;;15.80;47.90;;;;;;5053787;28;19955;-75
2021/04/15 03:42:47;;;;;;;;;;;15.60;48.30;;;;;;5056851;28;20349;-75
2021/04/15 03:45:16;;;;;;;;;;;15.60;48.40;;;;;;5052514;28;20251;-75
2021/04/15 03:47:45;;;;;;;;;;;15.50;48.50;;;;;;5056066;28;19931;-75
2021/04/15 03:50:26;;;;;;;;;;;15.70;48.50;;;;;;5056095;28;20342;-76
2021/04/15 03:52:57;;;;;;;;;;;15.60;49.00;;;;;;5057108;28;19905;-75
2021/04/15 03:55:49;;;;;;;;;;;15.50;49.00;;;;;;5034280;28;19943;-76
2021/04/15 03:58:21;;;;;;;;;;;15.50;48.80;;;;;;5050249;28;19916;-76
2021/04/15 04:00:49;;;;;;;;;;;15.50;48.60;;;;;;5050518;28;19919;-75
2021/04/15 04:03:20;;;;;;;;;;;15.50;48.40;;;;;;5038427;28;19920;-76
2021/04/15 04:05:55;;;;;;;;;;;15.40;48.40;;;;;;5029462;28;19920;-76
2021/04/15 04:08:44;;;;;;;;;;;15.30;49.30;;;;;;5054621;28;19963;-76
2021/04/15 04:11:14;;;;;;;;;;;15.10;49.30;;;;;;5038959;28;20286;-75
2021/04/15 04:13:42;;;;;;;;;;;15.20;48.70;;;;;;5057144;28;19913;-76
2021/04/15 04:16:26;;;;;;;;;;;15.20;48.70;;;;;;5039311;28;19909;-76
2021/04/15 04:18:59;;;;;;;;;;;15.20;48.60;;;;;;5035729;28;20007;-75
2021/04/15 04:21:25;;;;;;;;;;;15.10;48.50;;;;;;5054583;28;19944;-76
2021/04/15 04:24:02;;;;;;;;;;;15.10;48.70;;;;;;5039674;28;19959;-75
2021/04/15 04:26:28;;;;;;;;;;;15.00;48.70;;;;;;5039888;28;19904;-76
2021/04/15 04:29:12;;;;;;;;;;;15.00;48.60;;;;;;5056948;28;19962;-75
2021/04/15 04:31:42;;;;;;;;;;;14.90;48.90;;;;;;5041889;28;19908;-76
2021/04/15 04:34:08;;;;;;;;;;;14.80;48.90;;;;;;5058236;28;20323;-76
2021/04/15 04:36:36;;;;;;;;;;;14.80;48.60;;;;;;5036800;28;19916;-76
2021/04/15 04:39:03;;;;;;;;;;;14.80;48.60;;;;;;5039175;28;19909;-76
2021/04/15 04:41:39;;;;;;;;;;;14.70;48.60;;;;;;5044046;28;20050;-76
2021/04/15 04:44:10;;;;;;;;;;;14.60;48.70;;;;;;5037757;28;19913;-76
2021/04/15 04:46:41;;;;;;;;;;;14.50;48.70;;;;;;5020033;28;20255;-76
2021/04/15 04:49:12;;;;;;;;;;;14.40;48.60;;;;;;5019851;28;19905;-76
2021/04/15 04:51:58;;;;;;;;;;;14.30;48.80;;;;;;5030731;28;19913;-76
2021/04/15 04:54:25;;;;;;;;;;;14.20;48.80;;;;;;5055875;28;20003;-76
2021/04/15 04:56:56;;;;;;;;;;;14.20;49.00;;;;;;5050335;28;19936;-75
2021/04/15 04:59:26;;;;;;;;;;;14.10;49.00;;;;;;5076343;28;19912;-76
2021/04/15 05:01:52;;;;;;;;;;;13.90;49.10;;;;;;5038198;28;19909;-76
2021/04/15 05:04:19;;;;;;;;;;;13.80;49.10;;;;;;5036044;28;20003;-76
2021/04/15 05:06:46;;;;;;;;;;;13.80;49.30;;;;;;5053841;28;19920;-76
2021/04/15 05:09:25;;;;;;;;;;;13.80;49.00;;;;;;5057419;28;19919;-76
2021/04/15 05:11:51;;;;;;;;;;;13.70;49.20;;;;;;5051434;28;19921;-75
2021/04/15 05:14:19;;;;;;;;;;;13.60;49.30;;;;;;5054374;28;19978;-76
2021/04/15 05:16:50;;;;;;;;;;;13.50;49.50;;;;;;5037841;28;19923;-76
2021/04/15 05:19:17;;;;;;;;;;;13.40;49.50;;;;;;5058636;28;19966;-77
2021/04/15 05:21:44;;;;;;;;;;;13.40;49.80;;;;;;5038907;28;20253;-75
2021/04/15 05:24:10;;;;;;;;;;;13.40;49.70;;;;;;5045903;28;19951;-75
2021/04/15 05:26:37;;;;;;;;;;;13.30;49.50;;;;;;5060072;28;19971;-76
2021/04/15 05:29:05;;;;;;;;;;;13.30;49.80;;;;;;5052714;28;20012;-76
2021/04/15 05:31:32;;;;;;;;;;;13.20;49.50;;;;;;5055072;28;20325;-76
2021/04/15 05:34:02;;;;;;;;;;;13.00;49.70;;;;;;5055700;28;20388;-75
2021/04/15 05:36:28;;;;;;;;;;;13.00;50.20;;;;;;5039641;28;19920;-76
2021/04/15 05:38:56;;;;;;;;;;;13.00;50.10;;;;;;5036134;28;20353;-75
2021/04/15 05:41:25;;;;;;;;;;;12.90;49.90;;;;;;5041812;28;19909;-76
2021/04/15 05:43:52;;;;;;;;;;;12.90;49.90;;;;;;5049836;28;19970;-76
2021/04/15 05:46:31;;;;;;;;;;;13.00;50.40;;;;;;5055145;28;19999;-76
2021/04/15 05:49:01;;;;;;;;;;;13.10;49.70;;;;;;5055017;28;19920;-76
2021/04/15 05:51:48;;;;;;;;;;;12.90;49.80;;;;;;5037746;28;19908;-76
2021/04/15 05:54:16;;;;;;;;;;;13.00;50.10;;;;;;5049137;28;19916;-75
2021/04/15 05:56:51;;;;;;;;;;;12.90;50.10;;;;;;5055117;28;20262;-76
2021/04/15 05:59:29;;;;;;;;;;;12.70;50.10;;;;;;5056551;28;19905;-76
2021/04/15 06:02:04;;;;;;;;;;;12.60;50.30;;;;;;5042586;28;20390;-76
2021/04/15 06:04:50;;;;;;;;;;;12.50;50.70;;;;;;5049691;28;19940;-76
2021/04/15 06:07:18;;;;;;;;;;;12.60;50.70;;;;;;5039372;28;19999;-76
2021/04/15 06:09:44;;;;;;;;;;;12.60;51.20;;;;;;5046731;28;19908;-75
2021/04/15 06:12:30;;;;;;;;;;;12.70;51.80;;;;;;5055051;28;19905;-76
2021/04/15 06:14:58;;;;;;;;;;;12.80;52.00;;;;;;5050138;28;19913;-76
2021/04/15 06:17:30;;;;;;;;;;;12.90;52.00;;;;;;5051188;28;20016;-75
2021/04/15 06:19:59;;;;;;;;;;;12.90;51.50;;;;;;5035951;28;19909;-75
2021/04/15 06:22:27;;;;;;;;;;;12.80;51.40;;;;;;5050980;28;20254;-75
2021/04/15 06:25:04;;;;;;;;;;;12.70;51.60;;;;;;5047731;28;20315;-75
2021/04/15 06:27:30;;;;;;;;;;;12.70;51.50;;;;;;5030656;28;19925;-75
2021/04/15 06:30:00;;;;;;;;;;;12.70;51.70;;;;;;5041404;28;20343;-75
2021/04/15 06:32:49;;;;;;;;;;;12.70;52.00;;;;;;5045544;28;19913;-75
2021/04/15 06:35:25;;;;;;;;;;;12.70;52.10;;;;;;5036405;28;19913;-76
2021/04/15 06:37:57;;;;;;;;;;;12.90;53.70;;;;;;5050339;28;20262;-75
2021/04/15 06:40:41;;;;;;;;;;;13.20;56.00;;;;;;5053752;28;19995;-76
2021/04/15 06:43:26;;;;;;;;;;;13.30;55.40;;;;;;5052625;28;20000;-76
2021/04/15 06:46:15;;;;;;;;;;;13.40;58.20;;;;;;5045015;28;20250;-76
2021/04/15 06:48:47;;;;;;;;;;;13.40;57.70;;;;;;5037662;28;19916;-75
2021/04/15 06:51:22;;;;;;;;;;;13.50;57.60;;;;;;5045303;28;19908;-76
2021/04/15 06:54:06;;;;;;;;;;;13.50;58.50;;;;;;5034530;28;20076;-75
2021/04/15 06:57:02;;;;;;;;;;;13.60;58.00;;;;;;5045911;28;19923;-76
2021/04/15 06:59:46;;;;;;;;;;;13.70;58.90;;;;;;5037964;28;20044;-76
2021/04/15 07:02:22;;;;;;;;;;;13.80;60.00;;;;;;5052123;28;20361;-75
2021/04/15 07:04:58;;;;;;;;;;;13.90;60.20;;;;;;5052531;28;19919;-75
2021/04/15 07:07:31;;;;;;;;;;;13.90;59.50;;;;;;5050110;28;19916;-75
2021/04/15 07:10:00;;;;;;;;;;;13.80;60.20;;;;;;5034480;28;19913;-75
2021/04/15 07:12:47;;;;;;;;;;;13.80;60.30;;;;;;5025704;28;19912;-75
2021/04/15 07:15:31;;;;;;;;;;;13.80;60.60;;;;;;5052059;28;19909;-75
2021/04/15 07:18:16;;;;;;;;;;;13.70;59.60;;;;;;5034989;28;20269;-75
2021/04/15 07:21:00;;;;;;;;;;;13.70;60.50;;;;;;5045653;28;20250;-75
2021/04/15 07:23:32;;;;;;;;;;;13.70;61.00;;;;;;5056729;28;19919;-75
2021/04/15 07:26:06;;;;;;;;;;;13.80;61.20;;;;;;5037540;28;20242;-75
2021/04/15 07:28:44;;;;;;;;;;;13.70;60.40;;;;;;5056006;28;19913;-76
2021/04/15 07:31:14;;;;;;;;;;;13.70;59.50;;;;;;5047818;28;19908;-75
2021/04/15 07:33:53;;;;;;;;;;;13.70;60.60;;;;;;5055723;28;19916;-76
2021/04/15 07:36:27;;;;;;;;;;;13.60;61.10;;;;;;5039341;28;20364;-76
2021/04/15 07:39:16;;;;;;;;;;;13.50;61.10;;;;;;5055549;28;19962;-75
2021/04/15 07:41:48;;;;;;;;;;;13.50;61.20;;;;;;5025970;28;20335;-76
2021/04/15 07:44:28;;;;;;;;;;;13.60;60.70;;;;;;5057150;28;19909;-75
2021/04/15 07:46:54;;;;;;;;;;;13.60;60.50;;;;;;5054128;28;20342;-75
2021/04/15 07:49:55;;;;;;;;;;;13.60;60.90;;;;;;5052901;28;19940;-75
2021/04/15 07:52:40;;;;;;;;;;;13.70;62.40;;;;;;4974071;28;20395;-75
2021/04/15 07:55:12;;;;;;;;;;;13.80;61.50;;;;;;5048637;28;19913;-75
2021/04/15 07:57:50;;;;;;;;;;;13.80;62.40;;;;;;5055168;28;20330;-76
2021/04/15 08:00:16;;;;;;;;;;;13.70;62.00;;;;;;5042448;28;20342;-76
2021/04/15 08:02:54;;;;;;;;;;;13.60;61.80;;;;;;5053199;28;19919;-75
2021/04/15 08:05:20;;;;;;;;;;;13.60;62.70;;;;;;5047985;28;19909;-76
2021/04/15 08:08:05;;;;;;;;;;;13.70;61.70;;;;;;5054761;28;19916;-74
2021/04/15 08:10:49;;;;;;;;;;;13.60;62.20;;;;;;5054866;28;20007;-75
2021/04/15 08:13:24;;;;;;;;;;;13.60;62.30;;;;;;5055281;28;19912;-76
2021/04/15 08:16:15;;;;;;;;;;;13.60;63.00;;;;;;5054472;28;19944;-75
2021/04/15 08:18:47;;;;;;;;;;;13.70;62.60;;;;;;5050930;28;19966;-75
2021/04/15 08:21:26;;;;;;;;;;;13.60;62.60;;;;;;5054002;28;20289;-75
2021/04/15 08:24:13;;;;;;;;;;;13.60;62.40;;;;;;5053118;28;21280;-76
2021/04/15 08:26:48;;;;;;;;;;;13.60;63.10;;;;;;5047513;28;20338;-76
2021/04/15 08:29:14;;;;;;;;;;;13.60;63.40;;;;;;5041808;28;19909;-75
2021/04/15 08:31:51;;;;;;;;;;;13.60;63.30;;;;;;5054068;28;20373;-75
2021/04/15 08:34:29;;;;;;;;;;;13.40;62.60;;;;;;5054086;28;19916;-75
2021/04/15 08:37:01;;;;;;;;;;;13.50;63.40;;;;;;5053332;28;19920;-74
2021/04/15 08:39:39;;;;;;;;;;;13.50;62.80;;;;;;5054207;28;19908;-74
2021/04/15 08:42:07;;;;;;;;;;;13.60;63.40;;;;;;5055454;28;20254;-76
2021/04/15 08:44:54;;;;;;;;;;;13.50;62.60;;;;;;5054004;28;20032;-75
2021/04/15 08:47:32;;;;;;;;;;;13.40;62.80;;;;;;5041260;28;19944;-74
2021/04/15 08:50:17;;;;;;;;;;;13.40;62.60;;;;;;5039603;28;19977;-75
2021/04/15 08:52:54;;;;;;;;;;;13.40;62.70;;;;;;5047331;28;20099;-75
2021/04/15 08:55:36;;;;;;;;;;;13.50;63.00;;;;;;5053587;28;19935;-75
2021/04/15 08:58:02;;;;;;;;;;;13.50;62.20;;;;;;5051766;28;19917;-75
2021/04/15 09:00:36;;;;;;;;;;;13.40;62.40;;;;;;5056888;28;19909;-75
2021/04/15 09:03:05;;;;;;;;;;;13.30;62.40;;;;;;5054937;28;19976;-75
2021/04/15 09:05:51;;;;;;;;;;;13.20;62.90;;;;;;5037583;28;20337;-75
2021/04/15 09:08:20;;;;;;;;;;;13.30;62.50;;;;;;5038846;28;20261;-75
2021/04/15 09:10:54;;;;;;;;;;;13.20;62.40;;;;;;5054059;28;19909;-77
2021/04/15 09:13:29;;;;;;;;;;;13.20;63.20;;;;;;5054528;28;19909;-75
2021/04/15 09:16:14;;;;;;;;;;;13.20;63.50;;;;;;5050692;28;19912;-75
2021/04/15 09:18:46;;;;;;;;;;;13.20;63.10;;;;;;5053018;28;20011;-76
2021/04/15 09:21:31;;;;;;;;;;;13.20;63.50;;;;;;5061029;28;19909;-75
2021/04/15 09:24:12;;;;;;;;;;;13.10;64.40;;;;;;5042121;28;19960;-75
2021/04/15 09:26:57;;;;;;;;;;;13.10;63.80;;;;;;5051243;28;20249;-75
2021/04/15 09:29:36;;;;;;;;;;;13.00;63.90;;;;;;5055436;28;19913;-75
2021/04/15 09:32:08;;;;;;;;;;;13.00;63.90;;;;;;5053892;28;19905;-75
2021/04/15 09:34:49;;;;;;;;;;;13.00;63.40;;;;;;5054310;28;19909;-75
2021/04/15 09:37:15;;;;;;;;;;;13.00;64.00;;;;;;5054127;28;20334;-75
2021/04/15 09:40:01;;;;;;;;;;;13.00;63.90;;;;;;5053580;28;19911;-76
2021/04/15 09:42:45;;;;;;;;;;;12.90;64.20;;;;;;5051110;28;19916;-75
2021/04/15 09:45:21;;;;;;;;;;;12.90;63.50;;;;;;5052727;28;19908;-75
2021/04/15 09:48:05;;;;;;;;;;;12.80;63.60;;;;;;5049808;28;20000;-75
2021/04/15 09:50:43;;;;;;;;;;;12.80;63.40;;;;;;5053711;28;19963;-74
2021/04/15 09:53:12;;;;;;;;;;;12.80;63.90;;;;;;5049597;28;20290;-75
2021/04/15 09:56:04;;;;;;;;;;;12.70;63.70;;;;;;5053555;28;19904;-76
2021/04/15 09:58:45;;;;;;;;;;;12.80;62.70;;;;;;5046149;28;19909;-75
2021/04/15 10:01:18;;;;;;;;;;;12.80;63.30;;;;;;5035466;28;19916;-75
2021/04/15 10:03:52;;;;;;;;;;;12.70;63.60;;;;;;5050093;28;19951;-75
2021/04/15 10:06:44;;;;;;;;;;;12.70;62.90;;;;;;5050999;28;19916;-75
2021/04/15 10:09:17;;;;;;;;;;;12.70;63.80;;;;;;5049566;28;19909;-75
2021/04/15 10:12:04;;;;;;;;;;;12.50;63.20;;;;;;5052716;28;19999;-75
2021/04/15 10:14:36;;;;;;;;;;;12.40;63.60;;;;;;5036298;28;19913;-75
2021/04/15 10:17:21;;;;;;;;;;;12.30;63.40;;;;;;5051192;28;19967;-74
2021/04/15 10:19:55;;;;;;;;;;;12.50;64.80;;;;;;5052806;28;19958;-74
2021/04/15 10:22:40;;;;;;;;;;;12.50;64.60;;;;;;5054086;28;19916;-75
2021/04/15 10:25:13;;;;;;;;;;;12.40;63.70;;;;;;5036479;28;19912;-75
2021/04/15 10:27:45;;;;;;;;;;;12.40;64.70;;;;;;5043868;28;19908;-74
2021/04/15 10:30:23;;;;;;;;;;;12.40;64.40;;;;;;5052783;28;19905;-74
2021/04/15 10:32:49;;;;;;;;;;;12.50;64.80;;;;;;5046697;28;19999;-75
2021/04/15 10:35:29;;;;;;;;;;;12.40;64.50;;;;;;5041721;28;19916;-75
2021/04/15 10:38:28;;;;;;;;;;;12.40;65.00;;;;;;5046497;28;20318;-75
2021/04/15 10:41:12;;;;;;;;;;;12.30;65.00;;;;;;5051726;28;19915;-75
2021/04/15 10:43:44;;;;;;;;;;;12.10;64.20;;;;;;5053718;28;19913;-75
2021/04/15 10:46:22;;;;;;;;;;;12.10;64.90;;;;;;5047992;28;19908;-74
2021/04/15 10:49:03;;;;;;;;;;;12.10;65.00;;;;;;5051327;28;20311;-75
2021/04/15 10:51:33;;;;;;;;;;;11.80;64.80;;;;;;5052939;28;19909;-74
2021/04/15 10:54:18;;;;;;;;;;;11.70;66.60;;;;;;5046502;28;19909;-75
2021/04/15 10:56:45;;;;;;;;;;;11.70;65.00;;;;;;5057589;28;19909;-75
2021/04/15 10:59:14;;;;;;;;;;;11.80;64.60;;;;;;5052064;28;19912;-75
2021/04/15 11:01:42;;;;;;;;;;;11.90;65.00;;;;;;5053182;28;19982;-74
2021/04/15 11:04:08;;;;;;;;;;;11.80;64.40;;;;;;5057789;28;19999;-75
2021/04/15 11:06:46;;;;;;;;;;;11.90;65.00;;;;;;5056442;28;19909;-75
2021/04/15 11:09:20;;;;;;;;;;;12.10;65.00;;;;;;5049853;28;19913;-75
2021/04/15 11:11:58;;;;;;;;;;;12.00;64.60;;;;;;5057289;28;19909;-74
2021/04/15 11:14:26;;;;;;;;;;;11.90;64.20;;;;;;5057597;28;19992;-74
2021/04/15 11:16:54;;;;;;;;;;;11.90;64.80;;;;;;5040007;28;19913;-74
2021/04/15 11:19:23;;;;;;;;;;;11.90;64.50;;;;;;5059853;28;19916;-74
2021/04/15 11:21:51;;;;;;;;;;;11.80;64.80;;;;;;5060118;28;19948;-75
2021/04/15 11:24:26;;;;;;;;;;;11.70;64.00;;;;;;5056255;28;19912;-75
2021/04/15 11:26:52;;;;;;;;;;;11.50;64.10;;;;;;5056190;28;19934;-75
2021/04/15 11:29:24;;;;;;;;;;;11.60;64.10;;;;;;5039459;28;20413;-75
2021/04/15 11:31:50;;;;;;;;;;;11.50;64.50;;;;;;5054929;28;19909;-74
2021/04/15 11:34:22;;;;;;;;;;;11.80;65.40;;;;;;5038956;28;19966;-74
2021/04/15 11:36:51;;;;;;;;;;;11.80;63.70;;;;;;5052064;28;20005;-74
2021/04/15 11:39:22;;;;;;;;;;;11.60;63.70;;;;;;5055217;28;20003;-74
2021/04/15 11:41:54;;;;;;;;;;;11.60;64.20;;;;;;5037123;28;19948;-74
2021/04/15 11:44:23;;;;;;;;;;;11.60;64.30;;;;;;5055624;28;19920;-74
2021/04/15 11:46:53;;;;;;;;;;;11.60;64.40;;;;;;5053458;28;19909;-74
2021/04/15 11:49:20;;;;;;;;;;;11.60;63.90;;;;;;5049482;28;20326;-74
2021/04/15 11:52:00;;;;;;;;;;;11.70;64.60;;;;;;5055843;28;19913;-73
2021/04/15 11:54:33;;;;;;;;;;;11.50;63.40;;;;;;5046516;28;19985;-74
2021/04/15 11:57:20;;;;;;;;;;;11.40;63.60;;;;;;5055510;28;19909;-74
2021/04/15 12:00:03;;;;;;;;;;;11.30;64.00;;;;;;5003593;28;20342;-74
2021/04/15 12:02:38;;;;;;;;;;;11.20;63.80;;;;;;5022829;28;20031;-74
2021/04/15 12:05:19;;;;;;;;;;;11.10;63.70;;;;;;5048663;28;20028;-74
2021/04/15 12:07:53;;;;;;;;;;;10.90;63.70;;;;;;5051458;28;19913;-74
2021/04/15 12:10:21;;;;;;;;;;;10.90;64.10;;;;;;5037693;28;19917;-74
2021/04/15 12:12:50;;;;;;;;;;;10.90;63.90;;;;;;5053866;28;19909;-74
2021/04/15 12:15:19;;;;;;;;;;;10.80;63.80;;;;;;5037854;28;19948;-74
2021/04/15 12:17:51;;;;;;;;;;;10.80;63.90;;;;;;5051900;28;20111;-74
2021/04/15 12:20:20;;;;;;;;;;;10.70;63.90;;;;;;5038014;28;20346;-74
2021/04/15 12:22:59;;;;;;;;;;;10.70;63.60;;;;;;5038050;28;20214;-74
2021/04/15 12:25:28;;;;;;;;;;;10.60;63.30;;;;;;5055922;28;19964;-74
2021/04/15 12:28:20;;;;;;;;;;;10.60;63.40;;;;;;5043886;28;20319;-73
2021/04/15 12:30:47;;;;;;;;;;;10.50;63.50;;;;;;5018633;28;20339;-74
2021/04/15 12:33:31;;;;;;;;;;;10.50;63.70;;;;;;5055396;28;19967;-74
2021/04/15 12:35:59;;;;;;;;;;;10.50;63.70;;;;;;5054443;28;19938;-74
2021/04/15 12:38:34;;;;;;;;;;;10.40;63.30;;;;;;5037122;28;19935;-74
2021/04/15 12:41:02;;;;;;;;;;;10.40;63.40;;;;;;5055566;28;20247;-74
2021/04/15 12:43:28;;;;;;;;;;;10.30;62.90;;;;;;5055079;28;19912;-74
2021/04/15 12:46:08;;;;;;;;;;;10.30;63.00;;;;;;5023697;28;19978;-74
2021/04/15 12:48:53;;;;;;;;;;;10.30;63.00;;;;;;5055568;28;19999;-74
2021/04/15 12:51:24;;;;;;;;;;;10.30;63.10;;;;;;5048440;28;19917;-73
2021/04/15 12:53:50;;;;;;;;;;;10.30;63.00;;;;;;5048567;28;19948;-74
2021/04/15 12:56:21;;;;;;;;;;;10.30;62.90;;;;;;5041963;28;20401;-74
2021/04/15 12:58:48;;;;;;;;;;;10.20;62.80;;;;;;5032774;28;20254;-73
2021/04/15 13:01:14;;;;;;;;;;;10.30;63.00;;;;;;5054956;28;19908;-73
2021/04/15 13:03:41;;;;;;;;;;;10.30;63.30;;;;;;5056097;28;20239;-74
2021/04/15 13:06:15;;;;;;;;;;;10.20;62.90;;;;;;5049271;28;19909;-74
2021/04/15 13:08:49;;;;;;;;;;;10.20;63.10;;;;;;5036367;28;20398;-74
2021/04/15 13:11:15;;;;;;;;;;;10.30;63.50;;;;;;5054200;28;19948;-74
2021/04/15 13:13:45;;;;;;;;;;;10.30;63.30;;;;;;5052707;28;19932;-74
2021/04/15 13:16:29;;;;;;;;;;;10.20;63.50;;;;;;5053484;28;19951;-74
2021/04/15 13:18:56;;;;;;;;;;;10.10;63.00;;;;;;5052597;28;20262;-74
2021/04/15 13:21:30;;;;;;;;;;;10.00;63.30;;;;;;5054078;28;19913;-74
2021/04/15 13:23:56;;;;;;;;;;;10.10;64.00;;;;;;5052859;28;19923;-73
2021/04/15 13:26:27;;;;;;;;;;;10.10;65.30;;;;;;5054865;28;19976;-74
2021/04/15 13:28:56;;;;;;;;;;;10.20;65.00;;;;;;5053026;28;19946;-74
2021/04/15 13:31:40;;;;;;;;;;;10.20;65.90;;;;;;5052483;28;19915;-74
2021/04/15 13:34:08;;;;;;;;;;;10.20;65.60;;;;;;5052141;28;19909;-74
2021/04/15 13:36:35;;;;;;;;;;;10.30;65.40;;;;;;5054070;28;20312;-74
2021/04/15 13:39:07;;;;;;;;;;;10.20;65.30;;;;;;5049281;28;19970;-74
2021/04/15 13:41:42;;;;;;;;;;;10.20;65.40;;;;;;5036983;28;19905;-73
2021/04/15 13:44:12;;;;;;;;;;;10.40;66.00;;;;;;5050161;28;19913;-74
2021/04/15 13:46:45;;;;;;;;;;;10.60;66.90;;;;;;5044863;28;19909;-73
2021/04/15 13:49:12;;;;;;;;;;;10.60;66.30;;;;;;5051623;28;20330;-74
2021/04/15 13:51:48;;;;;;;;;;;10.70;66.50;;;;;;5037553;28;20003;-74
2021/04/15 13:54:17;;;;;;;;;;;10.80;66.90;;;;;;5053410;28;19966;-74
2021/04/15 13:56:49;;;;;;;;;;;10.80;66.70;;;;;;5050297;28;19909;-74
2021/04/15 13:59:27;;;;;;;;;;;11.00;67.30;;;;;;5046436;28;19919;-73
2021/04/15 14:01:53;;;;;;;;;;;11.10;67.80;;;;;;5045969;28;19909;-74
2021/04/15 14:04:38;;;;;;;;;;;11.30;67.40;;;;;;5026074;28;19965;-74
2021/04/15 14:07:22;;;;;;;;;;;11.40;67.70;;;;;;5051714;28;19911;-74
2021/04/15 14:10:14;;;;;;;;;;;11.20;67.50;;;;;;5053874;28;20000;-74
2021/04/15 14:12:40;;;;;;;;;;;11.20;67.10;;;;;;5023633;28;20342;-74
2021/04/15 14:15:18;;;;;;;;;;;11.20;66.80;;;;;;5053452;28;19932;-73
2021/04/15 14:17:45;;;;;;;;;;;11.10;67.20;;;;;;5053425;28;19909;-73
2021/04/15 14:20:26;;;;;;;;;;;11.10;66.90;;;;;;5054329;28;20328;-74
2021/04/15 14:22:52;;;;;;;;;;;11.10;67.20;;;;;;5053413;28;19948;-73
2021/04/15 14:25:32;;;;;;;;;;;11.30;68.00;;;;;;5053079;28;19970;-74
2021/04/15 14:27:58;;;;;;;;;;;11.40;67.90;;;;;;5051959;28;20285;-75
2021/04/15 14:30:25;;;;;;;;;;;11.40;67.90;;;;;;5056992;28;19905;-74
2021/04/15 14:32:51;;;;;;;;;;;11.50;68.10;;;;;;5039682;28;19908;-74
2021/04/15 14:35:23;;;;;;;;;;;11.70;68.10;;;;;;5058823;28;19916;-74
2021/04/15 14:37:50;;;;;;;;;;;11.60;67.70;;;;;;5054924;28;19909;-74
2021/04/15 14:40:36;;;;;;;;;;;11.80;68.40;;;;;;5055859;28;19913;-73
2021/04/15 14:43:16;;;;;;;;;;;11.90;67.50;;;;;;5054841;28;19919;-73
2021/04/15 14:45:43;;;;;;;;;;;12.00;67.50;;;;;;5035692;28;19908;-73
2021/04/15 14:48:17;;;;;;;;;;;12.20;67.40;;;;;;5057516;28;19909;-74
2021/04/15 14:50:43;;;;;;;;;;;12.20;66.50;;;;;;5053022;28;20327;-74
2021/04/15 14:53:15;;;;;;;;;;;12.30;66.80;;;;;;5050793;28;19991;-74